Country
Station

 

Weather  for  Madrid/Barajas  -  Spain    Spain

  
26 °C (79 °F)
    
 
 

Current METAR for Madrid/Barajas is :

LEMD 021130Z 19004KT CAVOK 26/13 Q1016 NOSIG

 

This is a report for Madrid/Barajas - Spain.
 
The report was made 24 minutes ago, at 11:30 UTC .
The wind was blowing at a speed of 2.1 meters per second (4.6 miles per hour) from south (190°).
 
The temperature was 26 °C (79 °F), with a dew-point at 13 °C (55 °F).
The temperature felt like 27 °C (80 °F).
 
The atmospheric pressure was 1016 hPa (30.00 inHg).
The relative humidity was 44.6%.
 
There were no clouds below 1500 meter (5000 feet) and no cumulonimbus clouds.
 
The overall visibility was greater than 10 kilometers (6.2 miles).
 

 
 
 
 

Country :   A   B   C   D   E   F   G   H   I   J   K   L   M   N   O   P   Q   R   S   T   U   V   W   Y   Z

 

Site Info  |  Disclaimer  |  Credits  |  Privacy
Contact us  |  Add to favorites
© 2013-2020 METARs - All rights reserved